Malden, MO (63863)

5:53 AM CDT on August 24, 2016 (GMT -0500)
MOComAgNet | | Change Station

Elev 285 ft 36.49 °N, 89.96 °W | Updated 33 minutes ago

Clear
Clear
73 °F
Feels Like 73 °F
N
3
Wind Variable Wind from SSE
Gusts 4.0 mph

Today
High -- | Low -- °F
--% Chance of Precip.
Yesterday
High -- | Low -- °F
Precip. -- in
Pressure 30.10 in
Visibility 7.0 miles
Clouds Clear
Dew Point 71 °F
Humidity 95%
Rainfall in
Snow Depth Not available.
6:25 AM 7:38 PM
Waning Gibbous, 58% visible
METAR KPOF 240953Z AUTO 15004KT 7SM CLR 22/22 A3011 RMK AO2 SLP191 T02220217 TSNO $
Pressure 30.10 in
Visibility 7.0 miles
Clouds Clear
Dew Point 71 °F
Humidity 95%
Rainfall in
Snow Depth Not available.
6:25 AM 7:38 PM
Waning Gibbous, 58% visible
METAR KPOF 240953Z AUTO 15004KT 7SM CLR 22/22 A3011 RMK AO2 SLP191 T02220217 TSNO $

10-Day Weather Forecast

Almanac

Astronomy

Aug. 24, 2016 Rise Set
Actual Time
Civil Twilight
Nautical Twilight
Astronomical Twilight
Moon
Length of Visible Light
Length of Day
Tomorrow will be .
, % of the Moon is Illuminated

Today's Extremes

State Highs State Lows

Community

WunderPhotos

Upload Photos

1,934,562 photos uploaded!

WunderBlog® & News

Nearby

Air Quality

  Air Quality AQ Index Pollutant
Not available.

Snow Depth

Station Depth Elevation

Earthquake Activity

City Distance Mag. Time & Date
Minimum magnitude displayed is 2.5.

Coastal Water Temperatures

Place Temperature

Stations

Nearby Weather Stations

Station Location Temp. Windchill Dew Point Humidity Wind Precip. Elev Updated Type
                   

Watches & Warnings

There are currently no watches in effect.